Airfield :
LOGIN :

Register | Disclaimer

   EN    FR    IT 

 










Legend :    VFR   Marginal VFR   IFR   Intensive IFR   Very Intensive IFR
Visi :
Ceiling :
>= 8 km
>= 3000ft
5 to 8 km
1000 to 3000 ft
1500m to 5 km
500 to 1000 ft
800 to 1500m
200 to 500 ft
< 800m
< 200 ft
Symbols :   Thunderstorms  Fog  Heavy snow  Heavy precipitations  Wind > 20 kt
SIGMETs :     Misc.  Thunderstorms  Icing  Turbulence  Mountain Waves  Volcanic Ashes







- Airport Elevation : 32 ft
- IATA code : LKZ


EGUL - RAF Lakenheath

CURRENT METAR :
  • 252011Z 36009KT 4000 BR OVC005 16/16 A3019 RMK AO2A VIS 4000V6000 SLP226 $

EXPIRED METARs :
  • 251956Z 36008KT 8000 BR OVC005 16/16 A3019 RMK AO2A SLP226 T01570157 $
  • 251941Z 36008KT 8000 BR OVC005 16/16 A3018 RMK AO2A CIG 003 RWY24 SLP223 $
  • 251926Z 01009KT 9000 BR OVC004 16/16 A3018 RMK AO2A SLP223 $
  • 251911Z 01011KT 9000 BR OVC005 16/16 A3017 RMK AO2A CIG 004 RWY24 SLP220 $
  • 251856Z 01012KT 9000 BR OVC006 16/16 A3017 RMK AO2A CIG 005 RWY24 SLP220 T01610159 $
  • 251840Z 36010KT 9000 BR OVC006 16/16 A3016 RMK AO2A SLP216 $
  • 251826Z 36012KT 8000 BR OVC007 16/16 A3016 RMK AO2A CIG 006 RWY24 SLP216 $
  • 251756Z 01010KT 9999 OVC007 17/16 A3015 RMK AO2A SLPNO T01690164 10203 20169 52017 $

TAF TAF EGUL
Valid from the 25 at 20:00 until the 27 at 02:00 UTC


252008Z 2520/2702 36012KT 8000 BR OVC005 QNH3016INS
TEMPO 2520/2602 OVC004
BECMG 2606/2607 02012KT 9999 NSW OVC008 QNH3031INS
TEMPO 2607/2610 OVC012
BECMG 2609/2610 02012KT 9999 BKN015 QNH3034INS
BECMG 2612/2613 03012KT 9999 BKN020 QNH3037INS
BECMG 2617/2618 04012KT 9999 OVC010 QNH3042INS TX24/2616Z TN12/2604Z
No reported NOTAMs for that airfield.



MET'MAP, your aeronautical weather chart ! - Copyright ORBIFLY December 2007 - Disclaimer

ORBIFLY MET'MAP TEAM :

Programming & Development : Alexandra Zaïnal
Concept & Development : Baudouin d'Aumeries
Co-Development & Prog : Marc-Olivier Méhu
Technical & hardware support : Manuel Goepfert

Contact : metmap@orbifly.com




SOURCES & CREDITS :

   NOAA